Time,TemperatureF,DewpointF,PressureIn,WindDirection,WindDirectionDegrees,WindSpeedMPH,WindSpeedGustMPH,Humidity,HourlyPrecipIn,Conditions,Clouds,dailyrainin,SolarRadiationWatts/m^2,SoftwareType,DateUTC
2013-04-18 00:14:00,67.0,65.0,30.09,ENE,74,0.0,2.0,93,0.00,,,0.00,0,weatherlink.com 1.10,2013-04-18 04:14:00,
2013-04-18 00:29:00,66.5,65.0,30.08,ENE,76,0.0,2.0,94,0.00,,,0.00,0,weatherlink.com 1.10,2013-04-18 04:29:00,
2013-04-18 00:44:00,66.1,65.0,30.07,ENE,71,0.0,3.0,95,0.00,,,0.00,0,weatherlink.com 1.10,2013-04-18 04:44:00,
2013-04-18 00:59:00,66.0,65.0,30.07,ENE,66,1.0,5.0,95,0.00,,,0.00,0,weatherlink.com 1.10,2013-04-18 04:59:00,
2013-04-18 01:14:00,66.0,65.0,30.06,NE,46,1.0,4.0,95,0.00,,,0.00,0,weatherlink.com 1.10,2013-04-18 05:14:00,
2013-04-18 01:29:00,66.1,65.0,30.05,NNE,33,2.0,6.0,96,0.00,,,0.00,0,weatherlink.com 1.10,2013-04-18 05:29:00,
2013-04-18 01:45:00,66.0,65.0,30.05,ENE,67,1.0,3.0,96,0.00,,,0.00,0,weatherlink.com 1.10,2013-04-18 05:45:00,
2013-04-18 01:59:00,65.9,65.0,30.05,ENE,59,1.0,2.0,96,0.00,,,0.00,0,weatherlink.com 1.10,2013-04-18 05:59:00,
2013-04-18 02:14:00,66.0,65.0,30.05,NE,55,1.0,3.0,96,0.00,,,0.00,0,weatherlink.com 1.10,2013-04-18 06:14:00,
2013-04-18 02:30:00,65.8,65.0,30.04,NE,55,0.0,1.0,96,0.00,,,0.00,0,weatherlink.com 1.10,2013-04-18 06:30:00,
2013-04-18 02:45:00,65.8,65.0,30.04,NE,53,1.0,2.0,96,0.00,,,0.00,0,weatherlink.com 1.10,2013-04-18 06:45:00,
2013-04-18 03:00:00,65.8,65.0,30.03,ENE,62,0.0,2.0,97,0.00,,,0.00,0,weatherlink.com 1.10,2013-04-18 07:00:00,
2013-04-18 03:15:00,65.5,64.0,30.04,ENE,59,0.0,1.0,96,0.00,,,0.00,0,weatherlink.com 1.10,2013-04-18 07:15:00,
2013-04-18 03:30:00,65.1,64.0,30.04,ENE,59,0.0,0.0,96,0.00,,,0.00,0,weatherlink.com 1.10,2013-04-18 07:30:00,
2013-04-18 03:45:00,65.2,64.0,30.03,ENE,59,1.0,1.0,97,0.00,,,0.00,0,weatherlink.com 1.10,2013-04-18 07:45:00,
2013-04-18 04:00:00,65.1,64.0,30.03,ENE,61,0.0,1.0,97,0.00,,,0.00,0,weatherlink.com 1.10,2013-04-18 08:00:00,
2013-04-18 04:15:00,65.0,64.0,30.03,ENE,61,0.0,1.0,97,0.00,,,0.00,0,weatherlink.com 1.10,2013-04-18 08:15:00,
2013-04-18 04:30:00,64.9,64.0,30.03,ENE,63,0.0,1.0,97,0.00,,,0.00,0,weatherlink.com 1.10,2013-04-18 08:30:00,
2013-04-18 04:45:00,64.8,64.0,30.02,ENE,63,0.0,1.0,97,0.00,,,0.00,0,weatherlink.com 1.10,2013-04-18 08:45:00,
2013-04-18 05:00:00,64.8,64.0,30.02,ENE,63,0.0,1.0,97,0.00,,,0.00,0,weatherlink.com 1.10,2013-04-18 09:00:00,
2013-04-18 05:16:00,64.8,64.0,30.02,ENE,62,0.0,1.0,97,0.00,,,0.00,0,weatherlink.com 1.10,2013-04-18 09:16:00,
2013-04-18 05:30:00,64.5,64.0,30.02,ENE,77,0.0,2.0,97,0.00,,,0.00,0,weatherlink.com 1.10,2013-04-18 09:30:00,
2013-04-18 05:45:00,64.4,64.0,30.03,ENE,77,0.0,1.0,97,0.00,,,0.00,0,weatherlink.com 1.10,2013-04-18 09:45:00,
2013-04-18 06:00:00,64.5,64.0,30.03,ENE,77,0.0,0.0,97,0.00,,,0.00,0,weatherlink.com 1.10,2013-04-18 10:00:00,
2013-04-18 06:15:00,64.5,64.0,30.04,ENE,77,0.0,0.0,97,0.00,,,0.00,0,weatherlink.com 1.10,2013-04-18 10:15:00,
2013-04-18 06:46:00,64.6,64.0,30.04,ENE,76,0.0,1.0,97,0.00,,,0.00,0,weatherlink.com 1.10,2013-04-18 10:46:00,
2013-04-18 07:01:00,64.4,64.0,30.04,ENE,76,0.0,0.0,97,0.00,,,0.00,5,weatherlink.com 1.10,2013-04-18 11:01:00,
2013-04-18 07:16:00,64.5,64.0,30.05,ENE,76,0.0,0.0,97,0.00,,,0.00,21,weatherlink.com 1.10,2013-04-18 11:16:00,
2013-04-18 07:31:00,65.0,64.0,30.05,ENE,78,0.0,1.0,97,0.00,,,0.00,42,weatherlink.com 1.10,2013-04-18 11:31:00,
2013-04-18 07:46:00,65.7,65.0,30.05,ENE,78,0.0,1.0,98,0.00,,,0.00,102,weatherlink.com 1.10,2013-04-18 11:46:00,
2013-04-18 08:01:00,66.5,66.0,30.05,ENE,78,0.0,2.0,98,0.00,,,0.00,56,weatherlink.com 1.10,2013-04-18 12:01:00,
2013-04-18 08:16:00,67.6,67.0,30.05,East,87,1.0,2.0,98,0.00,,,0.00,160,weatherlink.com 1.10,2013-04-18 12:16:00,
2013-04-18 08:31:00,68.3,68.0,30.06,East,80,0.0,2.0,98,0.00,,,0.00,264,weatherlink.com 1.10,2013-04-18 12:31:00,
2013-04-18 08:46:00,69.6,69.0,30.06,ENE,73,1.0,3.0,98,0.00,,,0.00,322,weatherlink.com 1.10,2013-04-18 12:46:00,
2013-04-18 09:02:00,71.4,70.0,30.06,East,93,2.0,4.0,96,0.00,,,0.00,388,weatherlink.com 1.10,2013-04-18 13:02:00,
2013-04-18 09:17:00,73.5,70.0,30.06,East,93,2.0,5.0,89,0.00,,,0.00,431,weatherlink.com 1.10,2013-04-18 13:17:00,
2013-04-18 09:32:00,75.2,70.0,30.07,SSE,153,3.0,7.0,84,0.00,,,0.00,547,weatherlink.com 1.10,2013-04-18 13:32:00,
2013-04-18 09:47:00,75.6,70.0,30.07,East,86,2.0,7.0,83,0.00,,,0.00,209,weatherlink.com 1.10,2013-04-18 13:47:00,
2013-04-18 10:02:00,76.0,69.0,30.07,ESE,111,1.0,9.0,80,0.00,,,0.00,221,weatherlink.com 1.10,2013-04-18 14:02:00,
2013-04-18 10:17:00,76.4,70.0,30.07,East,98,2.0,5.0,80,0.00,,,0.00,788,weatherlink.com 1.10,2013-04-18 14:17:00,
2013-04-18 10:32:00,77.6,69.0,30.07,SE,146,3.0,5.0,75,0.00,,,0.00,320,weatherlink.com 1.10,2013-04-18 14:32:00,
2013-04-18 10:47:00,78.5,69.0,30.06,ESE,109,7.0,8.0,72,0.00,,,0.00,606,weatherlink.com 1.10,2013-04-18 14:47:00,
2013-04-18 11:02:00,78.6,68.0,30.06,ESE,115,1.0,7.0,70,0.00,,,0.00,253,weatherlink.com 1.10,2013-04-18 15:02:00,
2013-04-18 11:17:00,79.7,67.0,30.06,SE,134,3.0,10.0,66,0.00,,,0.00,202,weatherlink.com 1.10,2013-04-18 15:17:00,
2013-04-18 11:34:00,80.2,68.0,30.05,SSE,157,1.0,7.0,66,0.00,,,0.00,209,weatherlink.com 1.10,2013-04-18 15:34:00,
2013-04-18 11:48:00,81.4,66.0,30.05,SE,132,2.0,12.0,60,0.00,,,0.00,928,weatherlink.com 1.10,2013-04-18 15:48:00,
2013-04-18 12:04:00,81.8,65.0,30.04,South,190,8.0,11.0,58,0.00,,,0.00,951,weatherlink.com 1.10,2013-04-18 16:04:00,
2013-04-18 12:18:00,82.2,65.0,30.04,SSE,150,1.0,11.0,56,0.00,,,0.00,241,weatherlink.com 1.10,2013-04-18 16:18:00,
2013-04-18 12:35:00,82.3,64.0,30.04,SE,139,4.0,9.0,54,0.00,,,0.00,1049,weatherlink.com 1.10,2013-04-18 16:35:00,
2013-04-18 12:48:00,83.1,64.0,30.03,SE,142,4.0,12.0,53,0.00,,,0.00,1048,weatherlink.com 1.10,2013-04-18 16:48:00,
2013-04-18 13:04:00,84.3,63.0,30.03,SSE,155,4.0,6.0,49,0.00,,,0.00,1056,weatherlink.com 1.10,2013-04-18 17:04:00,
2013-04-18 13:18:00,84.6,60.0,30.02,SSE,166,5.0,10.0,44,0.00,,,0.00,1013,weatherlink.com 1.10,2013-04-18 17:18:00,
2013-04-18 13:34:00,84.3,62.0,30.02,SW,217,2.0,7.0,47,0.00,,,0.00,1071,weatherlink.com 1.10,2013-04-18 17:34:00,
2013-04-18 13:49:00,85.2,63.0,30.02,WSW,238,6.0,8.0,48,0.00,,,0.00,1137,weatherlink.com 1.10,2013-04-18 17:49:00,
2013-04-18 14:04:00,85.0,62.0,30.01,ESE,121,1.0,7.0,46,0.00,,,0.00,469,weatherlink.com 1.10,2013-04-18 18:04:00,
2013-04-18 14:19:00,85.5,62.0,30.01,South,189,5.0,5.0,46,0.00,,,0.00,278,weatherlink.com 1.10,2013-04-18 18:19:00,
2013-04-18 14:34:00,85.7,61.0,30.00,North,11,0.0,5.0,44,0.00,,,0.00,1020,weatherlink.com 1.10,2013-04-18 18:34:00,
2013-04-18 14:49:00,86.6,62.0,29.99,ESE,120,0.0,7.0,43,0.00,,,0.00,220,weatherlink.com 1.10,2013-04-18 18:49:00,
2013-04-18 15:04:00,85.5,62.0,29.99,SW,215,2.0,5.0,45,0.00,,,0.00,408,weatherlink.com 1.10,2013-04-18 19:04:00,
2013-04-18 15:19:00,86.4,63.0,29.98,WSW,255,9.0,9.0,45,0.00,,,0.00,969,weatherlink.com 1.10,2013-04-18 19:19:00,
2013-04-18 15:34:00,87.1,61.0,29.97,WSW,255,4.0,8.0,41,0.00,,,0.00,628,weatherlink.com 1.10,2013-04-18 19:34:00,
2013-04-18 15:49:00,86.8,62.0,29.97,South,188,1.0,11.0,44,0.00,,,0.00,814,weatherlink.com 1.10,2013-04-18 19:49:00,
2013-04-18 16:04:00,86.9,61.0,29.96,WNW,296,2.0,6.0,42,0.00,,,0.00,244,weatherlink.com 1.10,2013-04-18 20:04:00,
2013-04-18 16:19:00,85.8,62.0,29.96,SSW,194,1.0,5.0,45,0.00,,,0.00,287,weatherlink.com 1.10,2013-04-18 20:19:00,
2013-04-18 16:34:00,85.8,61.0,29.96,SSW,200,0.0,2.0,44,0.00,,,0.00,167,weatherlink.com 1.10,2013-04-18 20:34:00,
2013-04-18 16:49:00,86.3,61.0,29.96,West,275,2.0,2.0,43,0.00,,,0.00,856,weatherlink.com 1.10,2013-04-18 20:49:00,
2013-04-18 17:04:00,87.1,62.0,29.95,SW,217,0.0,5.0,43,0.00,,,0.00,232,weatherlink.com 1.10,2013-04-18 21:04:00,
2013-04-18 17:19:00,86.9,61.0,29.95,ENE,62,0.0,6.0,42,0.00,,,0.00,529,weatherlink.com 1.10,2013-04-18 21:19:00,
2013-04-18 17:35:00,87.8,62.0,29.95,SSW,196,2.0,4.0,42,0.00,,,0.00,462,weatherlink.com 1.10,2013-04-18 21:35:00,
2013-04-18 17:49:00,87.2,61.0,29.95,WNW,296,5.0,6.0,41,0.00,,,0.00,127,weatherlink.com 1.10,2013-04-18 21:49:00,
2013-04-18 18:05:00,86.1,62.0,29.95,SSW,211,0.0,2.0,45,0.00,,,0.00,141,weatherlink.com 1.10,2013-04-18 22:05:00,
2013-04-18 18:20:00,85.6,62.0,29.95,SSE,148,0.0,2.0,46,0.00,,,0.00,121,weatherlink.com 1.10,2013-04-18 22:20:00,
2013-04-18 18:35:00,84.8,62.0,29.95,SSE,162,0.0,2.0,47,0.00,,,0.00,74,weatherlink.com 1.10,2013-04-18 22:35:00,
2013-04-18 18:50:00,83.9,65.0,29.95,ENE,65,3.0,5.0,53,0.00,,,0.00,60,weatherlink.com 1.10,2013-04-18 22:50:00,
2013-04-18 19:05:00,82.0,68.0,29.95,East,82,3.0,8.0,62,0.00,,,0.00,51,weatherlink.com 1.10,2013-04-18 23:05:00,
2013-04-18 19:20:00,81.2,68.0,29.95,ENE,64,0.0,6.0,65,0.00,,,0.00,49,weatherlink.com 1.10,2013-04-18 23:20:00,
2013-04-18 19:35:00,80.5,68.0,29.95,ENE,69,7.0,8.0,66,0.00,,,0.00,46,weatherlink.com 1.10,2013-04-18 23:35:00,
2013-04-18 19:50:00,79.4,68.0,29.96,ENE,69,2.0,5.0,68,0.00,,,0.00,9,weatherlink.com 1.10,2013-04-18 23:50:00,
2013-04-18 20:05:00,78.3,68.0,29.96,East,83,1.0,5.0,70,0.00,,,0.00,0,weatherlink.com 1.10,2013-04-19 00:05:00,
2013-04-18 20:20:00,77.5,67.0,29.97,East,81,1.0,4.0,71,0.00,,,0.00,0,weatherlink.com 1.10,2013-04-19 00:20:00,
2013-04-18 20:35:00,76.7,67.0,29.98,East,81,1.0,3.0,72,0.00,,,0.00,0,weatherlink.com 1.10,2013-04-19 00:35:00,
2013-04-18 20:50:00,76.1,67.0,29.98,ENE,74,1.0,3.0,73,0.00,,,0.00,0,weatherlink.com 1.10,2013-04-19 00:50:00,
2013-04-18 21:05:00,75.6,67.0,29.98,East,100,2.0,5.0,74,0.00,,,0.00,0,weatherlink.com 1.10,2013-04-19 01:05:00,
2013-04-18 21:20:00,75.3,67.0,29.99,East,87,1.0,5.0,75,0.00,,,0.00,0,weatherlink.com 1.10,2013-04-19 01:20:00,
2013-04-18 21:36:00,74.8,67.0,29.99,ESE,103,0.0,3.0,77,0.00,,,0.00,0,weatherlink.com 1.10,2013-04-19 01:36:00,
2013-04-18 21:50:00,74.1,67.0,29.99,East,94,1.0,3.0,78,0.00,,,0.00,0,weatherlink.com 1.10,2013-04-19 01:50:00,
2013-04-18 22:06:00,73.7,68.0,30.00,ESE,119,0.0,3.0,81,0.00,,,0.00,0,weatherlink.com 1.10,2013-04-19 02:06:00,
2013-04-18 22:20:00,73.4,68.0,30.00,East,85,0.0,2.0,84,0.00,,,0.00,0,weatherlink.com 1.10,2013-04-19 02:20:00,
2013-04-18 22:36:00,73.0,68.0,30.00,ENE,77,0.0,3.0,85,0.00,,,0.00,0,weatherlink.com 1.10,2013-04-19 02:36:00,
2013-04-18 22:51:00,72.4,68.0,30.00,East,80,0.0,2.0,86,0.00,,,0.00,0,weatherlink.com 1.10,2013-04-19 02:51:00,
2013-04-18 23:06:00,72.1,68.0,30.00,East,101,0.0,2.0,88,0.00,,,0.00,0,weatherlink.com 1.10,2013-04-19 03:06:00,
2013-04-18 23:21:00,71.8,69.0,30.00,ESE,106,0.0,1.0,89,0.00,,,0.00,0,weatherlink.com 1.10,2013-04-19 03:21:00,
2013-04-18 23:36:00,71.5,69.0,29.99,ESE,105,0.0,1.0,90,0.00,,,0.00,0,weatherlink.com 1.10,2013-04-19 03:36:00,
2013-04-18 23:51:00,71.2,69.0,29.99,ESE,105,0.0,1.0,91,0.00,,,0.00,0,weatherlink.com 1.10,2013-04-19 03:51:00,